N626PC RPLL-RPVD
Flight info
| Callsign | N626PC |
|---|---|
| Flight time | 1h 42m |
| Altitude | 9500 |
| Route | VFR |
| Aircraft | AEST/L-SDF/C |
Departure
| Time | 2026-04-24 21:36 |
|---|---|
| Airport | Ninoy Aquino International Airport (RPLL) |
Arrival
| Time | 2026-04-24 23:18 |
|---|---|
| Airport | Sibulan Airport (RPVD) |
| Time | Latitude | Longitude | Altitude | Speed | Heading |
|---|---|---|---|---|---|
| 2026-04-24 21:19 | 14.52737 | 121.00197 | 62 ft | 0 kts | 136° |
| 2026-04-24 21:31 | 14.52721 | 121.00213 | 63 ft | 8 kts | 136° |
| 2026-04-24 21:31 | 14.52671 | 121.00229 | 64 ft | 9 kts | 189° |
| 2026-04-24 21:31 | 14.52643 | 121.00224 | 63 ft | 8 kts | 190° |
| 2026-04-24 21:31 | 14.52613 | 121.00210 | 64 ft | 2 kts | 278° |
| 2026-04-24 21:33 | 14.52615 | 121.00195 | 62 ft | 7 kts | 275° |
| 2026-04-24 21:33 | 14.52589 | 121.00177 | 64 ft | 10 kts | 153° |
| 2026-04-24 21:34 | 14.52530 | 121.00235 | 62 ft | 13 kts | 137° |
| 2026-04-24 21:34 | 14.52456 | 121.00308 | 64 ft | 15 kts | 137° |
| 2026-04-24 21:34 | 14.52383 | 121.00381 | 62 ft | 14 kts | 134° |
| 2026-04-24 21:34 | 14.52349 | 121.00417 | 63 ft | 0 kts | 134° |
| 2026-04-24 21:35 | 14.52243 | 121.00527 | 63 ft | 62 kts | 135° |
| 2026-04-24 21:35 | 14.51808 | 121.00983 | 93 ft | 106 kts | 134° |
| 2026-04-24 21:35 | 14.51237 | 121.01575 | 233 ft | 130 kts | 134° |
| 2026-04-24 21:36 | 14.50555 | 121.02270 | 525 ft | 142 kts | 135° |
| 2026-04-24 21:36 | 14.49807 | 121.02984 | 781 ft | 151 kts | 141° |
| 2026-04-24 21:36 | 14.48906 | 121.03599 | 995 ft | 161 kts | 152° |
| 2026-04-24 21:36 | 14.47825 | 121.04018 | 1134 ft | 170 kts | 166° |
| 2026-04-24 21:37 | 14.46644 | 121.04223 | 1246 ft | 175 kts | 170° |
| 2026-04-24 21:37 | 14.45415 | 121.04393 | 1340 ft | 180 kts | 171° |
| 2026-04-24 21:37 | 14.44165 | 121.04582 | 1355 ft | 188 kts | 164° |
| 2026-04-24 21:37 | 14.42953 | 121.05113 | 1447 ft | 188 kts | 148° |
| 2026-04-24 21:38 | 14.41876 | 121.05833 | 1659 ft | 182 kts | 143° |
| 2026-04-24 21:38 | 14.40856 | 121.06599 | 1819 ft | 181 kts | 142° |
| 2026-04-24 21:38 | 14.39827 | 121.07334 | 2003 ft | 179 kts | 143° |
| 2026-04-24 21:38 | 14.38776 | 121.08007 | 2202 ft | 177 kts | 146° |
| 2026-04-24 21:39 | 14.37704 | 121.08644 | 2346 ft | 179 kts | 147° |
| 2026-04-24 21:39 | 14.36590 | 121.09241 | 2462 ft | 181 kts | 150° |
| 2026-04-24 21:39 | 14.35439 | 121.09805 | 2520 ft | 186 kts | 150° |
| 2026-04-24 21:39 | 14.34285 | 121.10443 | 2539 ft | 190 kts | 146° |
| 2026-04-24 21:40 | 14.33139 | 121.11116 | 2569 ft | 192 kts | 146° |
| 2026-04-24 21:40 | 14.31960 | 121.11828 | 2485 ft | 198 kts | 144° |
| 2026-04-24 21:40 | 14.30807 | 121.12610 | 2510 ft | 198 kts | 142° |
| 2026-04-24 21:40 | 14.29662 | 121.13402 | 2488 ft | 200 kts | 142° |
| 2026-04-24 21:41 | 14.28508 | 121.14199 | 2510 ft | 198 kts | 142° |
| 2026-04-24 21:41 | 14.27390 | 121.15025 | 2523 ft | 198 kts | 139° |
| 2026-04-24 21:41 | 14.26306 | 121.15905 | 2549 ft | 197 kts | 138° |
| 2026-04-24 21:41 | 14.25241 | 121.16745 | 2691 ft | 194 kts | 140° |
| 2026-04-24 21:42 | 14.24171 | 121.17569 | 2900 ft | 188 kts | 140° |
| 2026-04-24 21:42 | 14.23151 | 121.18385 | 3111 ft | 184 kts | 139° |
| 2026-04-24 21:42 | 14.22140 | 121.19187 | 3283 ft | 183 kts | 139° |
| 2026-04-24 21:42 | 14.21111 | 121.19973 | 3382 ft | 185 kts | 141° |
| 2026-04-24 21:43 | 14.20084 | 121.20740 | 3600 ft | 180 kts | 141° |
| 2026-04-24 21:43 | 14.19069 | 121.21476 | 3807 ft | 177 kts | 142° |
| 2026-04-24 21:43 | 14.18046 | 121.22179 | 3993 ft | 177 kts | 142° |
| 2026-04-24 21:43 | 14.17015 | 121.22871 | 4191 ft | 177 kts | 144° |
| 2026-04-24 21:44 | 14.16013 | 121.23600 | 4381 ft | 176 kts | 137° |
| 2026-04-24 21:44 | 14.15094 | 121.24416 | 4587 ft | 172 kts | 135° |
| 2026-04-24 21:44 | 14.14201 | 121.25246 | 4791 ft | 174 kts | 135° |
| 2026-04-24 21:44 | 14.13302 | 121.26071 | 4986 ft | 173 kts | 137° |
| 2026-04-24 21:45 | 14.12392 | 121.26883 | 5159 ft | 173 kts | 137° |
| 2026-04-24 21:45 | 14.11481 | 121.27680 | 5348 ft | 171 kts | 137° |
| 2026-04-24 21:45 | 14.10580 | 121.28485 | 5504 ft | 172 kts | 136° |
| 2026-04-24 21:45 | 14.09679 | 121.29298 | 5666 ft | 172 kts | 136° |
| 2026-04-24 21:46 | 14.08776 | 121.30112 | 5839 ft | 172 kts | 136° |
| 2026-04-24 21:46 | 14.07875 | 121.30925 | 6004 ft | 172 kts | 136° |
| 2026-04-24 21:46 | 14.06983 | 121.31730 | 6158 ft | 173 kts | 136° |
| 2026-04-24 21:46 | 14.06082 | 121.32542 | 6306 ft | 171 kts | 136° |
| 2026-04-24 21:47 | 14.05187 | 121.33349 | 6452 ft | 171 kts | 136° |
| 2026-04-24 21:47 | 14.04593 | 121.33886 | 6541 ft | 171 kts | 136° |
| 2026-04-24 21:47 | 14.03396 | 121.34970 | 6721 ft | 171 kts | 136° |
| 2026-04-24 21:47 | 14.02504 | 121.35785 | 6852 ft | 172 kts | 136° |
| 2026-04-24 21:48 | 14.01611 | 121.36602 | 6984 ft | 172 kts | 136° |
| 2026-04-24 21:48 | 14.00720 | 121.37421 | 7108 ft | 172 kts | 136° |
| 2026-04-24 21:48 | 13.99829 | 121.38243 | 7231 ft | 172 kts | 136° |
| 2026-04-24 21:48 | 13.98936 | 121.39068 | 7351 ft | 173 kts | 136° |
| 2026-04-24 21:49 | 13.98043 | 121.39896 | 7471 ft | 173 kts | 136° |
| 2026-04-24 21:49 | 13.97149 | 121.40728 | 7591 ft | 174 kts | 136° |
| 2026-04-24 21:49 | 13.96254 | 121.41564 | 7711 ft | 174 kts | 136° |
| 2026-04-24 21:49 | 13.95357 | 121.42403 | 7830 ft | 174 kts | 137° |
| 2026-04-24 21:50 | 13.94417 | 121.43158 | 7953 ft | 174 kts | 144° |
| 2026-04-24 21:50 | 13.93396 | 121.43834 | 8081 ft | 175 kts | 147° |
| 2026-04-24 21:50 | 13.92343 | 121.44467 | 8211 ft | 176 kts | 150° |
| 2026-04-24 21:50 | 13.91259 | 121.45053 | 8337 ft | 176 kts | 155° |
| 2026-04-24 21:51 | 13.90126 | 121.45532 | 8464 ft | 177 kts | 158° |
| 2026-04-24 21:51 | 13.88964 | 121.45974 | 8602 ft | 179 kts | 159° |
| 2026-04-24 21:51 | 13.87788 | 121.46410 | 8746 ft | 180 kts | 159° |
| 2026-04-24 21:51 | 13.86611 | 121.46848 | 8890 ft | 180 kts | 159° |
| 2026-04-24 21:52 | 13.85434 | 121.47287 | 9039 ft | 180 kts | 159° |
| 2026-04-24 21:52 | 13.84254 | 121.47727 | 9180 ft | 180 kts | 159° |
| 2026-04-24 21:52 | 13.83070 | 121.48173 | 9291 ft | 181 kts | 159° |
| 2026-04-24 21:52 | 13.81883 | 121.48625 | 9419 ft | 183 kts | 159° |
| 2026-04-24 21:53 | 13.80683 | 121.49086 | 9522 ft | 186 kts | 159° |
| 2026-04-24 21:53 | 13.79454 | 121.49564 | 9561 ft | 192 kts | 159° |
| 2026-04-24 21:53 | 13.78177 | 121.50061 | 9537 ft | 200 kts | 159° |
| 2026-04-24 21:53 | 13.76859 | 121.50573 | 9524 ft | 205 kts | 159° |
| 2026-04-24 21:54 | 13.75533 | 121.51087 | 9518 ft | 208 kts | 159° |
| 2026-04-24 21:54 | 13.74174 | 121.51611 | 9532 ft | 210 kts | 159° |
| 2026-04-24 21:54 | 13.72802 | 121.52141 | 9529 ft | 211 kts | 159° |
| 2026-04-24 21:54 | 13.71421 | 121.52665 | 9517 ft | 213 kts | 159° |
| 2026-04-24 21:55 | 13.70029 | 121.53186 | 9523 ft | 213 kts | 160° |
| 2026-04-24 21:55 | 13.68632 | 121.53705 | 9527 ft | 214 kts | 159° |
| 2026-04-24 21:55 | 13.67228 | 121.54227 | 9527 ft | 215 kts | 159° |
| 2026-04-24 21:55 | 13.65823 | 121.54753 | 9526 ft | 215 kts | 159° |
| 2026-04-24 21:56 | 13.64413 | 121.55274 | 9526 ft | 216 kts | 160° |
| 2026-04-24 21:56 | 13.62999 | 121.55798 | 9523 ft | 216 kts | 159° |
| 2026-04-24 21:56 | 13.61582 | 121.56326 | 9520 ft | 217 kts | 159° |
| 2026-04-24 21:56 | 13.60164 | 121.56852 | 9521 ft | 217 kts | 160° |
| 2026-04-24 21:57 | 13.58746 | 121.57376 | 9522 ft | 216 kts | 160° |
| 2026-04-24 21:57 | 13.57336 | 121.57893 | 9521 ft | 215 kts | 159° |
| 2026-04-24 21:57 | 13.55931 | 121.58409 | 9520 ft | 214 kts | 160° |
| 2026-04-24 21:57 | 13.54523 | 121.58931 | 9524 ft | 215 kts | 160° |
| 2026-04-24 21:58 | 13.53113 | 121.59455 | 9525 ft | 216 kts | 160° |
| 2026-04-24 21:58 | 13.51700 | 121.59979 | 9526 ft | 216 kts | 160° |
| 2026-04-24 21:58 | 13.50284 | 121.60501 | 9526 ft | 216 kts | 160° |
| 2026-04-24 21:58 | 13.48866 | 121.61026 | 9525 ft | 217 kts | 160° |
| 2026-04-24 21:59 | 13.47448 | 121.61556 | 9525 ft | 216 kts | 160° |
| 2026-04-24 21:59 | 13.46037 | 121.62084 | 9524 ft | 216 kts | 160° |
| 2026-04-24 21:59 | 13.44623 | 121.62610 | 9524 ft | 216 kts | 160° |
| 2026-04-24 21:59 | 13.43231 | 121.63127 | 9525 ft | 215 kts | 160° |
| 2026-04-24 22:00 | 13.41821 | 121.63646 | 9524 ft | 215 kts | 160° |
| 2026-04-24 22:00 | 13.40412 | 121.64165 | 9528 ft | 215 kts | 160° |
| 2026-04-24 22:00 | 13.39004 | 121.64680 | 9527 ft | 214 kts | 160° |
| 2026-04-24 22:00 | 13.37599 | 121.65191 | 9528 ft | 214 kts | 160° |
| 2026-04-24 22:01 | 13.36194 | 121.65702 | 9529 ft | 214 kts | 160° |
| 2026-04-24 22:01 | 13.34787 | 121.66214 | 9525 ft | 215 kts | 160° |
| 2026-04-24 22:01 | 13.33380 | 121.66727 | 9525 ft | 215 kts | 160° |
| 2026-04-24 22:01 | 13.31973 | 121.67239 | 9525 ft | 215 kts | 160° |
| 2026-04-24 22:02 | 13.30566 | 121.67752 | 9525 ft | 215 kts | 160° |
| 2026-04-24 22:02 | 13.29159 | 121.68264 | 9525 ft | 215 kts | 160° |
| 2026-04-24 22:02 | 13.27751 | 121.68776 | 9526 ft | 215 kts | 160° |
| 2026-04-24 22:02 | 13.26344 | 121.69288 | 9526 ft | 215 kts | 160° |
| 2026-04-24 22:03 | 13.24937 | 121.69800 | 9525 ft | 215 kts | 160° |
| 2026-04-24 22:03 | 13.23526 | 121.70314 | 9525 ft | 215 kts | 160° |
| 2026-04-24 22:03 | 13.22118 | 121.70826 | 9525 ft | 215 kts | 160° |
| 2026-04-24 22:03 | 13.20708 | 121.71339 | 9525 ft | 215 kts | 160° |
| 2026-04-24 22:04 | 13.19300 | 121.71851 | 9525 ft | 215 kts | 160° |
| 2026-04-24 22:04 | 13.17893 | 121.72363 | 9524 ft | 215 kts | 160° |
| 2026-04-24 22:04 | 13.16485 | 121.72874 | 9526 ft | 215 kts | 160° |
| 2026-04-24 22:04 | 13.15077 | 121.73386 | 9525 ft | 215 kts | 160° |
| 2026-04-24 22:05 | 13.13668 | 121.73898 | 9524 ft | 215 kts | 160° |
| 2026-04-24 22:05 | 13.12257 | 121.74411 | 9524 ft | 215 kts | 160° |
| 2026-04-24 22:05 | 13.10849 | 121.74923 | 9525 ft | 215 kts | 160° |
| 2026-04-24 22:05 | 13.09441 | 121.75434 | 9525 ft | 215 kts | 160° |
| 2026-04-24 22:06 | 13.08049 | 121.75939 | 9522 ft | 215 kts | 160° |
| 2026-04-24 22:06 | 13.06642 | 121.76450 | 9523 ft | 215 kts | 160° |
| 2026-04-24 22:06 | 13.05237 | 121.76961 | 9523 ft | 215 kts | 160° |
| 2026-04-24 22:06 | 13.03830 | 121.77472 | 9523 ft | 215 kts | 160° |
| 2026-04-24 22:07 | 13.02419 | 121.77984 | 9522 ft | 215 kts | 160° |
| 2026-04-24 22:07 | 13.01011 | 121.78495 | 9519 ft | 215 kts | 160° |
| 2026-04-24 22:07 | 12.99603 | 121.79005 | 9520 ft | 215 kts | 160° |
| 2026-04-24 22:07 | 12.98195 | 121.79515 | 9520 ft | 215 kts | 160° |
| 2026-04-24 22:08 | 12.96785 | 121.80026 | 9523 ft | 215 kts | 160° |
| 2026-04-24 22:08 | 12.95372 | 121.80526 | 9523 ft | 215 kts | 160° |
| 2026-04-24 22:08 | 12.93956 | 121.81023 | 9522 ft | 215 kts | 160° |
| 2026-04-24 22:08 | 12.92541 | 121.81522 | 9523 ft | 215 kts | 160° |
| 2026-04-24 22:09 | 12.91125 | 121.82019 | 9521 ft | 215 kts | 160° |
| 2026-04-24 22:09 | 12.89706 | 121.82516 | 9521 ft | 215 kts | 160° |
| 2026-04-24 22:09 | 12.88289 | 121.83010 | 9523 ft | 215 kts | 160° |
| 2026-04-24 22:09 | 12.86872 | 121.83504 | 9523 ft | 215 kts | 160° |
| 2026-04-24 22:10 | 12.85452 | 121.83999 | 9522 ft | 215 kts | 160° |
| 2026-04-24 22:10 | 12.84036 | 121.84495 | 9522 ft | 215 kts | 160° |
| 2026-04-24 22:10 | 12.82621 | 121.84991 | 9524 ft | 215 kts | 160° |
| 2026-04-24 22:10 | 12.81209 | 121.85494 | 9520 ft | 215 kts | 158° |
| 2026-04-24 22:11 | 12.79811 | 121.86033 | 9514 ft | 215 kts | 158° |
| 2026-04-24 22:11 | 12.78410 | 121.86582 | 9515 ft | 215 kts | 158° |
| 2026-04-24 22:11 | 12.77015 | 121.87132 | 9523 ft | 215 kts | 158° |
| 2026-04-24 22:11 | 12.75619 | 121.87676 | 9518 ft | 214 kts | 158° |
| 2026-04-24 22:12 | 12.74216 | 121.88202 | 9521 ft | 214 kts | 158° |
| 2026-04-24 22:12 | 12.72813 | 121.88724 | 9522 ft | 214 kts | 158° |
| 2026-04-24 22:12 | 12.71408 | 121.89231 | 9522 ft | 214 kts | 158° |
| 2026-04-24 22:12 | 12.70007 | 121.89745 | 9522 ft | 214 kts | 158° |
| 2026-04-24 22:13 | 12.68627 | 121.90263 | 9520 ft | 214 kts | 158° |
| 2026-04-24 22:13 | 12.67225 | 121.90770 | 9519 ft | 214 kts | 158° |
| 2026-04-24 22:13 | 12.65820 | 121.91277 | 9520 ft | 214 kts | 158° |
| 2026-04-24 22:13 | 12.64418 | 121.91798 | 9522 ft | 214 kts | 158° |
| 2026-04-24 22:14 | 12.63018 | 121.92312 | 9535 ft | 213 kts | 156° |
| 2026-04-24 22:14 | 12.61632 | 121.92855 | 9536 ft | 214 kts | 156° |
| 2026-04-24 22:14 | 12.60250 | 121.93423 | 9536 ft | 214 kts | 156° |
| 2026-04-24 22:14 | 12.58867 | 121.93988 | 9535 ft | 214 kts | 156° |
| 2026-04-24 22:15 | 12.57484 | 121.94542 | 9538 ft | 214 kts | 156° |
| 2026-04-24 22:15 | 12.56105 | 121.95107 | 9538 ft | 213 kts | 156° |
| 2026-04-24 22:15 | 12.54732 | 121.95689 | 9539 ft | 214 kts | 154° |
| 2026-04-24 22:15 | 12.53374 | 121.96313 | 9534 ft | 214 kts | 154° |
| 2026-04-24 22:16 | 12.52018 | 121.96938 | 9537 ft | 213 kts | 154° |
| 2026-04-24 22:16 | 12.50659 | 121.97550 | 9539 ft | 213 kts | 154° |
| 2026-04-24 22:16 | 12.49300 | 121.98154 | 9538 ft | 213 kts | 154° |
| 2026-04-24 22:16 | 12.47941 | 121.98771 | 9538 ft | 213 kts | 154° |
| 2026-04-24 22:17 | 12.46585 | 121.99388 | 9536 ft | 213 kts | 154° |
| 2026-04-24 22:17 | 12.45224 | 121.99986 | 9535 ft | 213 kts | 154° |
| 2026-04-24 22:17 | 12.43863 | 122.00582 | 9535 ft | 213 kts | 154° |
| 2026-04-24 22:17 | 12.42505 | 122.01183 | 9539 ft | 213 kts | 154° |
| 2026-04-24 22:18 | 12.41151 | 122.01798 | 9541 ft | 214 kts | 154° |
| 2026-04-24 22:18 | 12.39795 | 122.02422 | 9541 ft | 214 kts | 154° |
| 2026-04-24 22:18 | 12.38433 | 122.03037 | 9541 ft | 213 kts | 154° |
| 2026-04-24 22:18 | 12.37534 | 122.03441 | 9543 ft | 214 kts | 154° |
| 2026-04-24 22:19 | 12.35715 | 122.04271 | 9537 ft | 214 kts | 154° |
| 2026-04-24 22:19 | 12.34815 | 122.04679 | 9537 ft | 214 kts | 154° |
| 2026-04-24 22:19 | 12.33458 | 122.05301 | 9539 ft | 214 kts | 154° |
| 2026-04-24 22:19 | 12.32096 | 122.05926 | 9538 ft | 214 kts | 154° |
| 2026-04-24 22:20 | 12.30737 | 122.06546 | 9535 ft | 214 kts | 154° |
| 2026-04-24 22:20 | 12.29377 | 122.07167 | 9537 ft | 214 kts | 154° |
| 2026-04-24 22:20 | 12.27570 | 122.07998 | 9535 ft | 215 kts | 154° |
| 2026-04-24 22:20 | 12.26649 | 122.08417 | 9538 ft | 215 kts | 154° |
| 2026-04-24 22:21 | 12.25282 | 122.09037 | 9539 ft | 215 kts | 154° |
| 2026-04-24 22:21 | 12.23917 | 122.09655 | 9538 ft | 215 kts | 154° |
| 2026-04-24 22:21 | 12.22570 | 122.10267 | 9524 ft | 215 kts | 153° |
| 2026-04-24 22:21 | 12.21213 | 122.10906 | 9528 ft | 215 kts | 153° |
| 2026-04-24 22:22 | 12.19859 | 122.11548 | 9532 ft | 214 kts | 153° |
| 2026-04-24 22:22 | 12.18487 | 122.12201 | 9535 ft | 214 kts | 153° |
| 2026-04-24 22:22 | 12.17138 | 122.12848 | 9530 ft | 214 kts | 152° |
| 2026-04-24 22:22 | 12.15806 | 122.13528 | 9535 ft | 214 kts | 151° |
| 2026-04-24 22:23 | 12.14496 | 122.14209 | 9535 ft | 214 kts | 151° |
| 2026-04-24 22:23 | 12.13167 | 122.14899 | 9534 ft | 214 kts | 151° |
| 2026-04-24 22:23 | 12.11835 | 122.15589 | 9531 ft | 214 kts | 151° |
| 2026-04-24 22:23 | 12.10503 | 122.16279 | 9528 ft | 215 kts | 151° |
| 2026-04-24 22:24 | 12.09179 | 122.16960 | 9535 ft | 212 kts | 151° |
| 2026-04-24 22:24 | 12.07853 | 122.17622 | 9528 ft | 212 kts | 151° |
| 2026-04-24 22:24 | 12.06529 | 122.18283 | 9534 ft | 212 kts | 151° |
| 2026-04-24 22:24 | 12.05208 | 122.18939 | 9538 ft | 211 kts | 151° |
| 2026-04-24 22:25 | 12.03887 | 122.19596 | 9526 ft | 212 kts | 151° |
| 2026-04-24 22:25 | 12.02567 | 122.20264 | 9532 ft | 211 kts | 151° |
| 2026-04-24 22:25 | 12.01249 | 122.20917 | 9539 ft | 210 kts | 151° |
| 2026-04-24 22:25 | 11.99930 | 122.21575 | 9539 ft | 211 kts | 151° |
| 2026-04-24 22:26 | 11.98615 | 122.22240 | 9538 ft | 211 kts | 151° |
| 2026-04-24 22:26 | 11.97301 | 122.22917 | 9538 ft | 212 kts | 151° |
| 2026-04-24 22:26 | 11.95984 | 122.23594 | 9538 ft | 211 kts | 151° |
| 2026-04-24 22:26 | 11.94670 | 122.24253 | 9536 ft | 211 kts | 151° |
| 2026-04-24 22:27 | 11.93353 | 122.24911 | 9539 ft | 211 kts | 151° |
| 2026-04-24 22:27 | 11.92034 | 122.25581 | 9538 ft | 211 kts | 151° |
| 2026-04-24 22:27 | 11.90717 | 122.26241 | 9538 ft | 211 kts | 151° |
| 2026-04-24 22:27 | 11.89415 | 122.26880 | 9537 ft | 211 kts | 151° |
| 2026-04-24 22:28 | 11.88094 | 122.27534 | 9536 ft | 211 kts | 151° |
| 2026-04-24 22:28 | 11.86774 | 122.28189 | 9536 ft | 211 kts | 151° |
| 2026-04-24 22:28 | 11.85455 | 122.28852 | 9536 ft | 212 kts | 151° |
| 2026-04-24 22:28 | 11.84134 | 122.29513 | 9537 ft | 211 kts | 151° |
| 2026-04-24 22:29 | 11.81487 | 122.30836 | 9536 ft | 212 kts | 151° |
| 2026-04-24 22:29 | 11.80163 | 122.31494 | 9533 ft | 212 kts | 151° |
| 2026-04-24 22:29 | 11.78846 | 122.32182 | 9536 ft | 213 kts | 146° |
| 2026-04-24 22:30 | 11.77673 | 122.33082 | 9533 ft | 210 kts | 137° |
| 2026-04-24 22:30 | 11.76571 | 122.34055 | 9530 ft | 209 kts | 136° |
| 2026-04-24 22:30 | 11.75486 | 122.35037 | 9531 ft | 208 kts | 136° |
| 2026-04-24 22:30 | 11.74405 | 122.36022 | 9534 ft | 209 kts | 136° |
| 2026-04-24 22:31 | 11.73324 | 122.37011 | 9534 ft | 209 kts | 136° |
| 2026-04-24 22:31 | 11.72240 | 122.38001 | 9528 ft | 209 kts | 136° |
| 2026-04-24 22:31 | 11.71066 | 122.38878 | 9522 ft | 209 kts | 147° |
| 2026-04-24 22:31 | 11.69738 | 122.39489 | 9535 ft | 211 kts | 157° |
| 2026-04-24 22:32 | 11.68355 | 122.39999 | 9538 ft | 211 kts | 158° |
| 2026-04-24 22:32 | 11.66966 | 122.40500 | 9533 ft | 212 kts | 158° |
| 2026-04-24 22:32 | 11.65572 | 122.41003 | 9522 ft | 213 kts | 158° |
| 2026-04-24 22:32 | 11.64174 | 122.41506 | 9510 ft | 213 kts | 158° |
| 2026-04-24 22:33 | 11.62773 | 122.42010 | 9514 ft | 213 kts | 158° |
| 2026-04-24 22:33 | 11.61372 | 122.42514 | 9513 ft | 214 kts | 158° |
| 2026-04-24 22:33 | 11.59968 | 122.43020 | 9510 ft | 214 kts | 158° |
| 2026-04-24 22:33 | 11.58564 | 122.43525 | 9509 ft | 214 kts | 158° |
| 2026-04-24 22:34 | 11.57180 | 122.44023 | 9514 ft | 213 kts | 158° |
| 2026-04-24 22:34 | 11.55781 | 122.44526 | 9514 ft | 213 kts | 158° |
| 2026-04-24 22:34 | 11.54382 | 122.45029 | 9516 ft | 213 kts | 158° |
| 2026-04-24 22:34 | 11.52983 | 122.45531 | 9517 ft | 213 kts | 158° |
| 2026-04-24 22:35 | 11.51588 | 122.46047 | 9521 ft | 213 kts | 156° |
| 2026-04-24 22:35 | 11.50209 | 122.46612 | 9518 ft | 213 kts | 154° |
| 2026-04-24 22:35 | 11.48846 | 122.47199 | 9521 ft | 213 kts | 155° |
| 2026-04-24 22:35 | 11.47464 | 122.47755 | 9519 ft | 213 kts | 156° |
| 2026-04-24 22:36 | 11.46082 | 122.48306 | 9519 ft | 213 kts | 156° |
| 2026-04-24 22:36 | 11.44699 | 122.48858 | 9524 ft | 213 kts | 156° |
| 2026-04-24 22:36 | 11.43322 | 122.49407 | 9529 ft | 213 kts | 156° |
| 2026-04-24 22:36 | 11.41941 | 122.49959 | 9529 ft | 213 kts | 156° |
| 2026-04-24 22:37 | 11.40563 | 122.50509 | 9529 ft | 213 kts | 156° |
| 2026-04-24 22:37 | 11.39186 | 122.51060 | 9530 ft | 213 kts | 156° |
| 2026-04-24 22:37 | 11.37808 | 122.51610 | 9526 ft | 213 kts | 156° |
| 2026-04-24 22:37 | 11.36429 | 122.52161 | 9527 ft | 213 kts | 156° |
| 2026-04-24 22:38 | 11.35049 | 122.52713 | 9531 ft | 213 kts | 156° |
| 2026-04-24 22:38 | 11.33674 | 122.53263 | 9530 ft | 212 kts | 156° |
| 2026-04-24 22:38 | 11.32299 | 122.53811 | 9530 ft | 212 kts | 156° |
| 2026-04-24 22:38 | 11.30923 | 122.54360 | 9531 ft | 212 kts | 156° |
| 2026-04-24 22:39 | 11.29547 | 122.54908 | 9529 ft | 212 kts | 156° |
| 2026-04-24 22:39 | 11.28172 | 122.55455 | 9532 ft | 212 kts | 156° |
| 2026-04-24 22:39 | 11.26800 | 122.56000 | 9529 ft | 211 kts | 156° |
| 2026-04-24 22:39 | 11.25447 | 122.56539 | 9531 ft | 212 kts | 156° |
| 2026-04-24 22:40 | 11.24072 | 122.57085 | 9531 ft | 212 kts | 156° |
| 2026-04-24 22:40 | 11.22697 | 122.57632 | 9532 ft | 212 kts | 156° |
| 2026-04-24 22:40 | 11.21321 | 122.58181 | 9530 ft | 213 kts | 156° |
| 2026-04-24 22:40 | 11.19942 | 122.58726 | 9531 ft | 213 kts | 156° |
| 2026-04-24 22:41 | 11.18554 | 122.59255 | 9531 ft | 213 kts | 157° |
| 2026-04-24 22:41 | 11.17166 | 122.59780 | 9528 ft | 213 kts | 157° |
| 2026-04-24 22:41 | 11.15778 | 122.60305 | 9528 ft | 213 kts | 157° |
| 2026-04-24 22:41 | 11.14389 | 122.60830 | 9527 ft | 213 kts | 157° |
| 2026-04-24 22:42 | 11.13000 | 122.61355 | 9530 ft | 213 kts | 157° |
| 2026-04-24 22:42 | 11.11609 | 122.61881 | 9534 ft | 213 kts | 157° |
| 2026-04-24 22:42 | 11.10221 | 122.62405 | 9522 ft | 213 kts | 157° |
| 2026-04-24 22:42 | 11.08832 | 122.62929 | 9523 ft | 213 kts | 157° |
| 2026-04-24 22:43 | 11.07443 | 122.63454 | 9520 ft | 213 kts | 157° |
| 2026-04-24 22:43 | 11.06052 | 122.63980 | 9519 ft | 213 kts | 157° |
| 2026-04-24 22:43 | 11.04663 | 122.64505 | 9521 ft | 213 kts | 157° |
| 2026-04-24 22:43 | 11.03273 | 122.65029 | 9520 ft | 213 kts | 157° |
| 2026-04-24 22:44 | 11.01881 | 122.65551 | 9520 ft | 213 kts | 157° |
| 2026-04-24 22:44 | 11.00488 | 122.66072 | 9520 ft | 213 kts | 157° |
| 2026-04-24 22:44 | 10.99096 | 122.66593 | 9520 ft | 213 kts | 157° |
| 2026-04-24 22:44 | 10.97701 | 122.67117 | 9519 ft | 213 kts | 157° |
| 2026-04-24 22:45 | 10.96310 | 122.67640 | 9516 ft | 213 kts | 157° |
| 2026-04-24 22:45 | 10.94922 | 122.68163 | 9517 ft | 213 kts | 157° |
| 2026-04-24 22:45 | 10.93535 | 122.68686 | 9517 ft | 213 kts | 157° |
| 2026-04-24 22:45 | 10.92145 | 122.69210 | 9514 ft | 213 kts | 157° |
| 2026-04-24 22:46 | 10.90763 | 122.69733 | 9510 ft | 212 kts | 157° |
| 2026-04-24 22:46 | 10.89375 | 122.70254 | 9511 ft | 212 kts | 157° |
| 2026-04-24 22:46 | 10.87990 | 122.70773 | 9511 ft | 212 kts | 157° |
| 2026-04-24 22:46 | 10.86602 | 122.71295 | 9511 ft | 212 kts | 157° |
| 2026-04-24 22:47 | 10.85218 | 122.71813 | 9514 ft | 213 kts | 157° |
| 2026-04-24 22:47 | 10.83827 | 122.72333 | 9516 ft | 213 kts | 157° |
| 2026-04-24 22:47 | 10.82439 | 122.72854 | 9511 ft | 213 kts | 157° |
| 2026-04-24 22:47 | 10.81069 | 122.73366 | 9511 ft | 213 kts | 157° |
| 2026-04-24 22:48 | 10.79680 | 122.73887 | 9512 ft | 213 kts | 157° |
| 2026-04-24 22:48 | 10.78289 | 122.74410 | 9507 ft | 213 kts | 157° |
| 2026-04-24 22:48 | 10.76903 | 122.74930 | 9508 ft | 212 kts | 157° |
| 2026-04-24 22:48 | 10.75518 | 122.75450 | 9508 ft | 212 kts | 157° |
| 2026-04-24 22:49 | 10.74132 | 122.75971 | 9505 ft | 212 kts | 157° |
| 2026-04-24 22:49 | 10.72747 | 122.76491 | 9506 ft | 212 kts | 157° |
| 2026-04-24 22:49 | 10.71362 | 122.77011 | 9506 ft | 212 kts | 157° |
| 2026-04-24 22:49 | 10.69976 | 122.77529 | 9506 ft | 212 kts | 157° |
| 2026-04-24 22:50 | 10.68587 | 122.78048 | 9506 ft | 212 kts | 157° |
| 2026-04-24 22:50 | 10.67199 | 122.78566 | 9506 ft | 212 kts | 157° |
| 2026-04-24 22:50 | 10.65812 | 122.79082 | 9503 ft | 212 kts | 157° |
| 2026-04-24 22:50 | 10.64427 | 122.79597 | 9503 ft | 212 kts | 157° |
| 2026-04-24 22:51 | 10.63044 | 122.80112 | 9506 ft | 212 kts | 157° |
| 2026-04-24 22:51 | 10.61661 | 122.80626 | 9507 ft | 212 kts | 157° |
| 2026-04-24 22:51 | 10.60274 | 122.81142 | 9504 ft | 212 kts | 157° |
| 2026-04-24 22:51 | 10.58888 | 122.81659 | 9505 ft | 212 kts | 157° |
| 2026-04-24 22:52 | 10.57506 | 122.82176 | 9504 ft | 212 kts | 157° |
| 2026-04-24 22:52 | 10.56122 | 122.82695 | 9504 ft | 212 kts | 157° |
| 2026-04-24 22:52 | 10.54732 | 122.83215 | 9504 ft | 213 kts | 157° |
| 2026-04-24 22:52 | 10.53362 | 122.83727 | 9509 ft | 213 kts | 157° |
| 2026-04-24 22:53 | 10.51976 | 122.84245 | 9508 ft | 213 kts | 157° |
| 2026-04-24 22:53 | 10.50585 | 122.84764 | 9509 ft | 213 kts | 157° |
| 2026-04-24 22:53 | 10.49186 | 122.85261 | 9497 ft | 213 kts | 161° |
| 2026-04-24 22:53 | 10.47743 | 122.85608 | 9508 ft | 213 kts | 165° |
| 2026-04-24 22:54 | 10.46289 | 122.85923 | 9512 ft | 214 kts | 165° |
| 2026-04-24 22:54 | 10.44834 | 122.86230 | 9508 ft | 214 kts | 165° |
| 2026-04-24 22:54 | 10.43377 | 122.86533 | 9507 ft | 214 kts | 165° |
| 2026-04-24 22:54 | 10.41919 | 122.86836 | 9510 ft | 214 kts | 165° |
| 2026-04-24 22:55 | 10.40460 | 122.87139 | 9506 ft | 214 kts | 165° |
| 2026-04-24 22:55 | 10.39000 | 122.87443 | 9505 ft | 214 kts | 165° |
| 2026-04-24 22:55 | 10.37538 | 122.87747 | 9506 ft | 214 kts | 165° |
| 2026-04-24 22:55 | 10.36079 | 122.88052 | 9506 ft | 214 kts | 165° |
| 2026-04-24 22:56 | 10.34621 | 122.88357 | 9506 ft | 214 kts | 165° |
| 2026-04-24 22:56 | 10.33161 | 122.88663 | 9505 ft | 214 kts | 165° |
| 2026-04-24 22:56 | 10.31706 | 122.88966 | 9503 ft | 214 kts | 165° |
| 2026-04-24 22:56 | 10.30245 | 122.89282 | 9506 ft | 214 kts | 165° |
| 2026-04-24 22:57 | 10.28805 | 122.89596 | 9487 ft | 209 kts | 165° |
| 2026-04-24 22:57 | 10.27383 | 122.89883 | 9398 ft | 208 kts | 166° |
| 2026-04-24 22:57 | 10.25968 | 122.90139 | 9253 ft | 210 kts | 167° |
| 2026-04-24 22:57 | 10.24536 | 122.90411 | 9153 ft | 209 kts | 166° |
| 2026-04-24 22:58 | 10.23111 | 122.90688 | 9042 ft | 208 kts | 166° |
| 2026-04-24 22:58 | 10.21686 | 122.90961 | 8921 ft | 209 kts | 166° |
| 2026-04-24 22:58 | 10.20258 | 122.91231 | 8822 ft | 209 kts | 166° |
| 2026-04-24 22:58 | 10.18834 | 122.91505 | 8721 ft | 208 kts | 166° |
| 2026-04-24 22:59 | 10.17412 | 122.91773 | 8615 ft | 207 kts | 166° |
| 2026-04-24 22:59 | 10.15997 | 122.92053 | 8503 ft | 207 kts | 165° |
| 2026-04-24 22:59 | 10.13158 | 122.92604 | 8282 ft | 208 kts | 165° |
| 2026-04-24 23:00 | 10.11730 | 122.92849 | 8186 ft | 208 kts | 166° |
| 2026-04-24 23:00 | 10.10305 | 122.93082 | 8094 ft | 207 kts | 165° |
| 2026-04-24 23:00 | 10.08898 | 122.93395 | 7993 ft | 206 kts | 162° |
| 2026-04-24 23:00 | 10.07510 | 122.93755 | 7887 ft | 206 kts | 161° |
| 2026-04-24 23:01 | 10.06135 | 122.94146 | 7804 ft | 204 kts | 160° |
| 2026-04-24 23:01 | 10.04776 | 122.94552 | 7708 ft | 203 kts | 159° |
| 2026-04-24 23:01 | 10.03420 | 122.94957 | 7596 ft | 203 kts | 160° |
| 2026-04-24 23:01 | 10.02049 | 122.95333 | 7454 ft | 204 kts | 160° |
| 2026-04-24 23:02 | 10.00679 | 122.95705 | 7342 ft | 204 kts | 160° |
| 2026-04-24 23:02 | 9.99336 | 122.96090 | 7245 ft | 203 kts | 160° |
| 2026-04-24 23:02 | 9.97974 | 122.96473 | 7153 ft | 203 kts | 160° |
| 2026-04-24 23:02 | 9.96617 | 122.96844 | 7066 ft | 202 kts | 160° |
| 2026-04-24 23:03 | 9.95255 | 122.97194 | 6972 ft | 202 kts | 161° |
| 2026-04-24 23:03 | 9.93899 | 122.97562 | 6888 ft | 201 kts | 159° |
| 2026-04-24 23:03 | 9.92553 | 122.97957 | 6809 ft | 201 kts | 160° |
| 2026-04-24 23:03 | 9.91201 | 122.98320 | 6731 ft | 201 kts | 161° |
| 2026-04-24 23:04 | 9.89848 | 122.98676 | 6655 ft | 200 kts | 160° |
| 2026-04-24 23:04 | 9.88508 | 122.99061 | 6563 ft | 199 kts | 159° |
| 2026-04-24 23:04 | 9.87177 | 122.99452 | 6473 ft | 199 kts | 159° |
| 2026-04-24 23:04 | 9.85852 | 122.99844 | 6381 ft | 198 kts | 159° |
| 2026-04-24 23:05 | 9.84533 | 123.00246 | 6256 ft | 198 kts | 158° |
| 2026-04-24 23:05 | 9.83222 | 123.00671 | 6150 ft | 197 kts | 158° |
| 2026-04-24 23:05 | 9.81935 | 123.01143 | 6059 ft | 197 kts | 154° |
| 2026-04-24 23:05 | 9.81089 | 123.01494 | 5999 ft | 197 kts | 153° |
| 2026-04-24 23:06 | 9.79370 | 123.02140 | 5898 ft | 197 kts | 156° |
| 2026-04-24 23:06 | 9.78518 | 123.02450 | 5858 ft | 196 kts | 154° |
| 2026-04-24 23:06 | 9.77262 | 123.02958 | 5754 ft | 192 kts | 153° |
| 2026-04-24 23:06 | 9.76042 | 123.03494 | 5659 ft | 191 kts | 151° |
| 2026-04-24 23:07 | 9.74864 | 123.04095 | 5554 ft | 189 kts | 147° |
| 2026-04-24 23:07 | 9.73712 | 123.04739 | 5437 ft | 189 kts | 146° |
| 2026-04-24 23:07 | 9.72587 | 123.05396 | 5317 ft | 184 kts | 145° |
| 2026-04-24 23:07 | 9.71500 | 123.06069 | 5213 ft | 183 kts | 144° |
| 2026-04-24 23:08 | 9.70416 | 123.06751 | 5113 ft | 184 kts | 143° |
| 2026-04-24 23:08 | 9.69344 | 123.07464 | 4991 ft | 184 kts | 142° |
| 2026-04-24 23:08 | 9.68287 | 123.08198 | 4908 ft | 184 kts | 141° |
| 2026-04-24 23:08 | 9.67195 | 123.08886 | 4839 ft | 186 kts | 146° |
| 2026-04-24 23:09 | 9.66050 | 123.09506 | 4737 ft | 187 kts | 147° |
| 2026-04-24 23:09 | 9.64902 | 123.10127 | 4614 ft | 187 kts | 147° |
| 2026-04-24 23:09 | 9.63755 | 123.10740 | 4498 ft | 190 kts | 148° |
| 2026-04-24 23:09 | 9.62569 | 123.11329 | 4395 ft | 190 kts | 149° |
| 2026-04-24 23:10 | 9.61375 | 123.11897 | 4284 ft | 190 kts | 150° |
| 2026-04-24 23:10 | 9.60180 | 123.12462 | 4172 ft | 189 kts | 149° |
| 2026-04-24 23:10 | 9.59003 | 123.13050 | 4085 ft | 188 kts | 149° |
| 2026-04-24 23:10 | 9.57829 | 123.13637 | 3982 ft | 188 kts | 149° |
| 2026-04-24 23:11 | 9.56663 | 123.14228 | 3885 ft | 187 kts | 148° |
| 2026-04-24 23:11 | 9.55510 | 123.14840 | 3757 ft | 188 kts | 148° |
| 2026-04-24 23:11 | 9.54351 | 123.15434 | 3666 ft | 186 kts | 149° |
| 2026-04-24 23:11 | 9.53193 | 123.16008 | 3561 ft | 185 kts | 149° |
| 2026-04-24 23:12 | 9.52055 | 123.16626 | 3438 ft | 186 kts | 146° |
| 2026-04-24 23:12 | 9.50954 | 123.17312 | 3349 ft | 185 kts | 142° |
| 2026-04-24 23:12 | 9.49890 | 123.18054 | 3236 ft | 186 kts | 141° |
| 2026-04-24 23:12 | 9.48829 | 123.18818 | 3134 ft | 188 kts | 140° |
| 2026-04-24 23:13 | 9.47778 | 123.19603 | 3037 ft | 188 kts | 139° |
| 2026-04-24 23:13 | 9.46751 | 123.20389 | 2916 ft | 186 kts | 138° |
| 2026-04-24 23:13 | 9.45735 | 123.21182 | 2792 ft | 182 kts | 138° |
| 2026-04-24 23:13 | 9.44738 | 123.21960 | 2660 ft | 179 kts | 139° |
| 2026-04-24 23:14 | 9.43689 | 123.22594 | 2560 ft | 175 kts | 152° |
| 2026-04-24 23:14 | 9.42544 | 123.22966 | 2514 ft | 171 kts | 160° |
| 2026-04-24 23:14 | 9.41420 | 123.23262 | 2455 ft | 161 kts | 160° |
| 2026-04-24 23:14 | 9.40372 | 123.23545 | 2401 ft | 152 kts | 159° |
| 2026-04-24 23:15 | 9.39365 | 123.23852 | 2323 ft | 151 kts | 158° |
| 2026-04-24 23:15 | 9.38364 | 123.24186 | 2210 ft | 151 kts | 156° |
| 2026-04-24 23:15 | 9.37362 | 123.24513 | 2092 ft | 152 kts | 159° |
| 2026-04-24 23:15 | 9.36338 | 123.24783 | 1971 ft | 152 kts | 161° |
| 2026-04-24 23:16 | 9.35389 | 123.25042 | 1778 ft | 132 kts | 158° |
| 2026-04-24 23:16 | 9.34542 | 123.25323 | 1474 ft | 125 kts | 153° |
| 2026-04-24 23:16 | 9.33860 | 123.25820 | 1170 ft | 119 kts | 124° |
| 2026-04-24 23:16 | 9.33562 | 123.26565 | 928 ft | 111 kts | 94° |
| 2026-04-24 23:17 | 9.33546 | 123.27316 | 697 ft | 104 kts | 85° |
| 2026-04-24 23:17 | 9.33539 | 123.28039 | 492 ft | 101 kts | 90° |
| 2026-04-24 23:17 | 9.33497 | 123.28747 | 278 ft | 96 kts | 88° |
| 2026-04-24 23:17 | 9.33466 | 123.29418 | 73 ft | 92 kts | 90° |
| 2026-04-24 23:18 | 9.33432 | 123.29973 | 10 ft | 61 kts | 91° |
| 2026-04-24 23:18 | 9.33412 | 123.30322 | 2 ft | 41 kts | 94° |
| 2026-04-24 23:18 | 9.33402 | 123.30521 | 0 ft | 21 kts | 90° |
| 2026-04-24 23:18 | 9.33399 | 123.30595 | -2 ft | 9 kts | 172° |
| 2026-04-24 23:19 | 9.33397 | 123.30504 | 0 ft | 17 kts | 282° |
| 2026-04-24 23:19 | 9.33407 | 123.30385 | 2 ft | 21 kts | 273° |
| 2026-04-24 23:19 | 9.33415 | 123.30251 | 2 ft | 23 kts | 274° |
| 2026-04-24 23:19 | 9.33425 | 123.30073 | 6 ft | 27 kts | 273° |
| 2026-04-24 23:20 | 9.33433 | 123.29887 | 12 ft | 28 kts | 275° |
| 2026-04-24 23:20 | 9.33442 | 123.29706 | 14 ft | 23 kts | 272° |